sensor_id;sensor_type;location;lat;lon;timestamp;P1;durP1;ratioP1;P2;durP2;ratioP2
2201;SDS011;1107;48.654;9.250;2022-08-16T00:02:21;5.17;;;4.97;;
2201;SDS011;1107;48.654;9.250;2022-08-16T00:04:48;9.10;;;5.30;;
2201;SDS011;1107;48.654;9.250;2022-08-16T00:07:15;5.87;;;5.57;;
2201;SDS011;1107;48.654;9.250;2022-08-16T00:09:44;4.97;;;4.77;;
2201;SDS011;1107;48.654;9.250;2022-08-16T00:12:11;6.43;;;4.47;;
2201;SDS011;1107;48.654;9.250;2022-08-16T00:14:38;5.63;;;5.23;;
2201;SDS011;1107;48.654;9.250;2022-08-16T00:17:04;5.60;;;5.20;;
2201;SDS011;1107;48.654;9.250;2022-08-16T00:19:32;5.30;;;4.90;;
2201;SDS011;1107;48.654;9.250;2022-08-16T00:22:00;5.10;;;4.90;;
2201;SDS011;1107;48.654;9.250;2022-08-16T00:24:27;5.37;;;4.97;;
2201;SDS011;1107;48.654;9.250;2022-08-16T00:26:56;5.00;;;4.80;;
2201;SDS011;1107;48.654;9.250;2022-08-16T00:29:23;5.30;;;5.00;;
2201;SDS011;1107;48.654;9.250;2022-08-16T00:31:50;5.40;;;4.97;;
2201;SDS011;1107;48.654;9.250;2022-08-16T00:34:18;4.97;;;4.77;;
2201;SDS011;1107;48.654;9.250;2022-08-16T00:36:48;4.83;;;4.53;;
2201;SDS011;1107;48.654;9.250;2022-08-16T00:39:16;5.43;;;5.13;;
2201;SDS011;1107;48.654;9.250;2022-08-16T00:41:45;5.40;;;4.90;;
2201;SDS011;1107;48.654;9.250;2022-08-16T00:44:15;5.00;;;4.80;;
2201;SDS011;1107;48.654;9.250;2022-08-16T00:46:46;5.30;;;5.00;;
2201;SDS011;1107;48.654;9.250;2022-08-16T00:49:18;5.63;;;5.20;;
2201;SDS011;1107;48.654;9.250;2022-08-16T00:51:46;4.80;;;4.60;;
2201;SDS011;1107;48.654;9.250;2022-08-16T00:54:13;5.90;;;5.60;;
2201;SDS011;1107;48.654;9.250;2022-08-16T00:56:41;5.50;;;5.20;;
2201;SDS011;1107;48.654;9.250;2022-08-16T00:59:11;6.00;;;5.60;;
2201;SDS011;1107;48.654;9.250;2022-08-16T01:01:41;5.60;;;5.40;;
2201;SDS011;1107;48.654;9.250;2022-08-16T01:04:09;6.20;;;5.80;;
2201;SDS011;1107;48.654;9.250;2022-08-16T01:06:38;5.40;;;5.20;;
2201;SDS011;1107;48.654;9.250;2022-08-16T01:09:05;5.73;;;5.50;;
2201;SDS011;1107;48.654;9.250;2022-08-16T01:11:33;6.00;;;5.60;;
2201;SDS011;1107;48.654;9.250;2022-08-16T01:14:04;5.90;;;5.60;;
2201;SDS011;1107;48.654;9.250;2022-08-16T01:16:36;6.57;;;6.17;;
2201;SDS011;1107;48.654;9.250;2022-08-16T01:19:09;5.90;;;5.50;;
2201;SDS011;1107;48.654;9.250;2022-08-16T01:21:44;8.10;;;5.27;;
2201;SDS011;1107;48.654;9.250;2022-08-16T01:24:20;5.30;;;5.10;;
2201;SDS011;1107;48.654;9.250;2022-08-16T01:26:50;5.33;;;5.07;;
2201;SDS011;1107;48.654;9.250;2022-08-16T01:29:22;5.60;;;5.20;;
2201;SDS011;1107;48.654;9.250;2022-08-16T01:31:54;6.63;;;6.17;;
2201;SDS011;1107;48.654;9.250;2022-08-16T01:34:21;8.53;;;5.50;;
2201;SDS011;1107;48.654;9.250;2022-08-16T01:36:55;5.93;;;5.63;;
2201;SDS011;1107;48.654;9.250;2022-08-16T01:39:25;5.70;;;5.40;;
2201;SDS011;1107;48.654;9.250;2022-08-16T01:41:52;5.70;;;5.30;;
2201;SDS011;1107;48.654;9.250;2022-08-16T01:44:19;6.50;;;6.00;;
2201;SDS011;1107;48.654;9.250;2022-08-16T01:46:47;5.80;;;5.40;;
2201;SDS011;1107;48.654;9.250;2022-08-16T01:49:18;6.23;;;5.93;;
2201;SDS011;1107;48.654;9.250;2022-08-16T01:51:47;6.03;;;5.83;;
2201;SDS011;1107;48.654;9.250;2022-08-16T01:54:16;6.47;;;6.17;;
2201;SDS011;1107;48.654;9.250;2022-08-16T01:56:44;6.30;;;5.90;;
2201;SDS011;1107;48.654;9.250;2022-08-16T01:59:12;6.60;;;6.30;;
2201;SDS011;1107;48.654;9.250;2022-08-16T02:01:41;5.50;;;5.30;;
2201;SDS011;1107;48.654;9.250;2022-08-16T02:04:08;6.30;;;5.87;;
2201;SDS011;1107;48.654;9.250;2022-08-16T02:06:36;7.50;;;6.10;;
2201;SDS011;1107;48.654;9.250;2022-08-16T02:09:05;7.07;;;5.90;;
2201;SDS011;1107;48.654;9.250;2022-08-16T02:11:33;6.30;;;5.90;;
2201;SDS011;1107;48.654;9.250;2022-08-16T02:14:02;6.40;;;6.00;;
2201;SDS011;1107;48.654;9.250;2022-08-16T02:16:30;6.47;;;6.17;;
2201;SDS011;1107;48.654;9.250;2022-08-16T02:18:57;5.67;;;5.43;;
2201;SDS011;1107;48.654;9.250;2022-08-16T02:21:25;5.70;;;5.50;;
2201;SDS011;1107;48.654;9.250;2022-08-16T02:23:52;6.40;;;6.03;;
2201;SDS011;1107;48.654;9.250;2022-08-16T02:26:19;6.00;;;5.60;;
2201;SDS011;1107;48.654;9.250;2022-08-16T02:28:50;6.50;;;6.10;;
2201;SDS011;1107;48.654;9.250;2022-08-16T02:31:19;7.20;;;6.63;;
2201;SDS011;1107;48.654;9.250;2022-08-16T02:33:47;6.80;;;6.30;;
2201;SDS011;1107;48.654;9.250;2022-08-16T02:36:14;6.80;;;6.23;;
2201;SDS011;1107;48.654;9.250;2022-08-16T02:38:41;6.47;;;6.00;;
2201;SDS011;1107;48.654;9.250;2022-08-16T02:41:09;7.40;;;7.00;;
2201;SDS011;1107;48.654;9.250;2022-08-16T02:43:36;6.53;;;6.03;;
2201;SDS011;1107;48.654;9.250;2022-08-16T02:46:04;6.33;;;5.93;;
2201;SDS011;1107;48.654;9.250;2022-08-16T02:48:33;6.77;;;6.47;;
2201;SDS011;1107;48.654;9.250;2022-08-16T02:51:02;6.80;;;6.50;;
2201;SDS011;1107;48.654;9.250;2022-08-16T02:53:30;6.50;;;6.20;;
2201;SDS011;1107;48.654;9.250;2022-08-16T02:55:57;7.43;;;6.70;;
2201;SDS011;1107;48.654;9.250;2022-08-16T02:58:25;6.50;;;6.20;;
2201;SDS011;1107;48.654;9.250;2022-08-16T03:00:56;6.67;;;6.23;;
2201;SDS011;1107;48.654;9.250;2022-08-16T03:03:23;6.80;;;6.37;;
2201;SDS011;1107;48.654;9.250;2022-08-16T03:05:53;7.77;;;7.20;;
2201;SDS011;1107;48.654;9.250;2022-08-16T03:08:21;6.80;;;6.40;;
2201;SDS011;1107;48.654;9.250;2022-08-16T03:10:49;6.60;;;6.20;;
2201;SDS011;1107;48.654;9.250;2022-08-16T03:13:16;6.90;;;6.60;;
2201;SDS011;1107;48.654;9.250;2022-08-16T03:15:45;6.50;;;6.10;;
2201;SDS011;1107;48.654;9.250;2022-08-16T03:18:13;6.57;;;6.27;;
2201;SDS011;1107;48.654;9.250;2022-08-16T03:20:41;6.20;;;5.90;;
2201;SDS011;1107;48.654;9.250;2022-08-16T03:23:09;6.17;;;5.80;;
2201;SDS011;1107;48.654;9.250;2022-08-16T03:25:37;7.67;;;7.17;;
2201;SDS011;1107;48.654;9.250;2022-08-16T03:28:04;7.47;;;7.07;;
2201;SDS011;1107;48.654;9.250;2022-08-16T03:30:32;7.70;;;7.30;;
2201;SDS011;1107;48.654;9.250;2022-08-16T03:33:01;6.73;;;6.33;;
2201;SDS011;1107;48.654;9.250;2022-08-16T03:35:29;6.40;;;6.10;;
2201;SDS011;1107;48.654;9.250;2022-08-16T03:37:59;6.70;;;6.40;;
2201;SDS011;1107;48.654;9.250;2022-08-16T03:40:30;7.00;;;6.70;;
2201;SDS011;1107;48.654;9.250;2022-08-16T03:42:59;8.33;;;7.10;;
2201;SDS011;1107;48.654;9.250;2022-08-16T03:45:26;8.20;;;7.57;;
2201;SDS011;1107;48.654;9.250;2022-08-16T03:47:53;6.40;;;6.10;;
2201;SDS011;1107;48.654;9.250;2022-08-16T03:50:20;6.93;;;6.63;;
2201;SDS011;1107;48.654;9.250;2022-08-16T03:52:47;7.53;;;6.80;;
2201;SDS011;1107;48.654;9.250;2022-08-16T03:55:14;7.40;;;7.10;;
2201;SDS011;1107;48.654;9.250;2022-08-16T03:57:43;7.80;;;7.27;;
2201;SDS011;1107;48.654;9.250;2022-08-16T04:00:11;7.30;;;6.87;;
2201;SDS011;1107;48.654;9.250;2022-08-16T04:02:41;7.63;;;7.23;;
2201;SDS011;1107;48.654;9.250;2022-08-16T04:05:08;8.20;;;7.50;;
2201;SDS011;1107;48.654;9.250;2022-08-16T04:07:36;8.10;;;7.60;;
2201;SDS011;1107;48.654;9.250;2022-08-16T04:10:04;7.53;;;7.13;;
2201;SDS011;1107;48.654;9.250;2022-08-16T04:12:33;7.97;;;7.10;;
2201;SDS011;1107;48.654;9.250;2022-08-16T04:15:03;7.67;;;7.10;;
2201;SDS011;1107;48.654;9.250;2022-08-16T04:17:32;6.67;;;6.37;;
2201;SDS011;1107;48.654;9.250;2022-08-16T04:19:59;7.20;;;6.73;;
2201;SDS011;1107;48.654;9.250;2022-08-16T04:22:31;11.40;;;6.90;;
2201;SDS011;1107;48.654;9.250;2022-08-16T04:24:59;7.33;;;6.83;;
2201;SDS011;1107;48.654;9.250;2022-08-16T04:27:26;7.27;;;6.97;;
2201;SDS011;1107;48.654;9.250;2022-08-16T04:29:53;7.40;;;7.00;;
2201;SDS011;1107;48.654;9.250;2022-08-16T04:32:23;7.40;;;6.93;;
2201;SDS011;1107;48.654;9.250;2022-08-16T04:34:50;7.60;;;7.10;;
2201;SDS011;1107;48.654;9.250;2022-08-16T04:37:17;7.87;;;7.47;;
2201;SDS011;1107;48.654;9.250;2022-08-16T04:39:44;7.10;;;6.63;;
2201;SDS011;1107;48.654;9.250;2022-08-16T04:42:11;7.10;;;6.60;;
2201;SDS011;1107;48.654;9.250;2022-08-16T04:44:38;7.20;;;6.80;;
2201;SDS011;1107;48.654;9.250;2022-08-16T04:47:05;7.23;;;6.73;;
2201;SDS011;1107;48.654;9.250;2022-08-16T04:49:33;7.70;;;7.40;;
2201;SDS011;1107;48.654;9.250;2022-08-16T04:52:00;7.50;;;7.20;;
2201;SDS011;1107;48.654;9.250;2022-08-16T04:54:27;8.27;;;7.57;;
2201;SDS011;1107;48.654;9.250;2022-08-16T04:56:54;8.23;;;7.73;;
2201;SDS011;1107;48.654;9.250;2022-08-16T04:59:21;7.77;;;7.27;;
2201;SDS011;1107;48.654;9.250;2022-08-16T05:01:48;7.70;;;7.10;;
2201;SDS011;1107;48.654;9.250;2022-08-16T05:04:20;7.43;;;7.00;;
2201;SDS011;1107;48.654;9.250;2022-08-16T05:06:49;7.03;;;6.53;;
2201;SDS011;1107;48.654;9.250;2022-08-16T05:09:16;6.73;;;6.33;;
2201;SDS011;1107;48.654;9.250;2022-08-16T05:11:44;7.63;;;6.77;;
2201;SDS011;1107;48.654;9.250;2022-08-16T05:14:11;7.27;;;6.97;;
2201;SDS011;1107;48.654;9.250;2022-08-16T05:16:38;7.47;;;6.77;;
2201;SDS011;1107;48.654;9.250;2022-08-16T05:19:06;7.50;;;6.80;;
2201;SDS011;1107;48.654;9.250;2022-08-16T05:21:33;7.00;;;6.50;;
2201;SDS011;1107;48.654;9.250;2022-08-16T05:24:04;7.47;;;7.07;;
2201;SDS011;1107;48.654;9.250;2022-08-16T05:26:32;7.00;;;6.70;;
2201;SDS011;1107;48.654;9.250;2022-08-16T05:29:00;7.40;;;7.00;;
2201;SDS011;1107;48.654;9.250;2022-08-16T05:31:28;8.10;;;7.60;;
2201;SDS011;1107;48.654;9.250;2022-08-16T05:33:56;7.67;;;7.17;;
2201;SDS011;1107;48.654;9.250;2022-08-16T05:36:24;7.30;;;6.83;;
2201;SDS011;1107;48.654;9.250;2022-08-16T05:38:51;7.87;;;7.37;;
2201;SDS011;1107;48.654;9.250;2022-08-16T05:41:20;7.87;;;7.33;;
2201;SDS011;1107;48.654;9.250;2022-08-16T05:43:47;7.27;;;6.97;;
2201;SDS011;1107;48.654;9.250;2022-08-16T05:46:14;7.37;;;6.77;;
2201;SDS011;1107;48.654;9.250;2022-08-16T05:48:43;7.63;;;7.23;;
2201;SDS011;1107;48.654;9.250;2022-08-16T05:51:10;7.40;;;6.80;;
2201;SDS011;1107;48.654;9.250;2022-08-16T05:53:38;7.20;;;6.90;;
2201;SDS011;1107;48.654;9.250;2022-08-16T05:56:05;9.90;;;7.73;;
2201;SDS011;1107;48.654;9.250;2022-08-16T05:58:33;7.60;;;7.20;;
2201;SDS011;1107;48.654;9.250;2022-08-16T06:01:00;7.83;;;7.43;;
2201;SDS011;1107;48.654;9.250;2022-08-16T06:03:28;8.23;;;7.70;;
2201;SDS011;1107;48.654;9.250;2022-08-16T06:05:55;8.63;;;7.97;;
2201;SDS011;1107;48.654;9.250;2022-08-16T06:08:23;7.17;;;6.67;;
2201;SDS011;1107;48.654;9.250;2022-08-16T06:10:50;7.30;;;6.90;;
2201;SDS011;1107;48.654;9.250;2022-08-16T06:13:17;7.30;;;6.90;;
2201;SDS011;1107;48.654;9.250;2022-08-16T06:15:46;7.27;;;6.87;;
2201;SDS011;1107;48.654;9.250;2022-08-16T06:18:16;7.53;;;7.23;;
2201;SDS011;1107;48.654;9.250;2022-08-16T06:20:43;7.40;;;7.00;;
2201;SDS011;1107;48.654;9.250;2022-08-16T06:23:10;7.10;;;6.80;;
2201;SDS011;1107;48.654;9.250;2022-08-16T06:25:37;7.40;;;6.83;;
2201;SDS011;1107;48.654;9.250;2022-08-16T06:28:04;7.00;;;6.70;;
2201;SDS011;1107;48.654;9.250;2022-08-16T06:30:33;7.33;;;6.90;;
2201;SDS011;1107;48.654;9.250;2022-08-16T06:33:01;7.40;;;7.10;;
2201;SDS011;1107;48.654;9.250;2022-08-16T06:35:28;7.20;;;6.90;;
2201;SDS011;1107;48.654;9.250;2022-08-16T06:37:55;7.87;;;7.13;;
2201;SDS011;1107;48.654;9.250;2022-08-16T06:40:22;7.30;;;6.90;;
2201;SDS011;1107;48.654;9.250;2022-08-16T06:42:50;7.40;;;7.00;;
2201;SDS011;1107;48.654;9.250;2022-08-16T06:45:18;7.37;;;6.87;;
2201;SDS011;1107;48.654;9.250;2022-08-16T06:47:45;7.90;;;7.47;;
2201;SDS011;1107;48.654;9.250;2022-08-16T06:50:13;7.93;;;7.63;;
2201;SDS011;1107;48.654;9.250;2022-08-16T06:52:41;9.00;;;8.20;;
2201;SDS011;1107;48.654;9.250;2022-08-16T06:55:09;7.63;;;7.13;;
2201;SDS011;1107;48.654;9.250;2022-08-16T06:57:36;7.40;;;7.03;;
2201;SDS011;1107;48.654;9.250;2022-08-16T07:00:05;7.63;;;7.33;;
2201;SDS011;1107;48.654;9.250;2022-08-16T07:02:36;8.33;;;7.47;;
2201;SDS011;1107;48.654;9.250;2022-08-16T07:05:04;7.20;;;6.60;;
2201;SDS011;1107;48.654;9.250;2022-08-16T07:07:33;7.17;;;6.87;;
2201;SDS011;1107;48.654;9.250;2022-08-16T07:10:01;6.80;;;6.50;;
2201;SDS011;1107;48.654;9.250;2022-08-16T07:12:30;6.90;;;6.60;;
2201;SDS011;1107;48.654;9.250;2022-08-16T07:17:25;6.73;;;6.43;;
2201;SDS011;1107;48.654;9.250;2022-08-16T07:19:53;7.60;;;7.20;;
2201;SDS011;1107;48.654;9.250;2022-08-16T07:22:20;6.87;;;6.57;;
2201;SDS011;1107;48.654;9.250;2022-08-16T07:27:16;7.25;;;6.70;;
2201;SDS011;1107;48.654;9.250;2022-08-16T07:32:10;6.60;;;6.30;;
2201;SDS011;1107;48.654;9.250;2022-08-16T07:34:37;8.20;;;6.47;;
2201;SDS011;1107;48.654;9.250;2022-08-16T07:37:05;6.90;;;6.50;;
2201;SDS011;1107;48.654;9.250;2022-08-16T07:39:33;7.10;;;6.77;;
2201;SDS011;1107;48.654;9.250;2022-08-16T07:42:02;6.50;;;6.10;;
2201;SDS011;1107;48.654;9.250;2022-08-16T07:44:30;6.37;;;6.00;;
2201;SDS011;1107;48.654;9.250;2022-08-16T07:46:57;6.60;;;6.10;;
2201;SDS011;1107;48.654;9.250;2022-08-16T07:49:24;6.60;;;6.30;;
2201;SDS011;1107;48.654;9.250;2022-08-16T07:51:51;6.70;;;6.30;;
2201;SDS011;1107;48.654;9.250;2022-08-16T07:54:18;5.93;;;5.70;;
2201;SDS011;1107;48.654;9.250;2022-08-16T07:56:45;6.73;;;6.33;;
2201;SDS011;1107;48.654;9.250;2022-08-16T07:59:13;6.43;;;5.93;;
2201;SDS011;1107;48.654;9.250;2022-08-16T08:01:40;6.60;;;6.30;;
2201;SDS011;1107;48.654;9.250;2022-08-16T08:04:07;6.67;;;6.13;;
2201;SDS011;1107;48.654;9.250;2022-08-16T08:06:37;6.30;;;5.90;;
2201;SDS011;1107;48.654;9.250;2022-08-16T08:09:05;6.73;;;6.43;;
2201;SDS011;1107;48.654;9.250;2022-08-16T08:11:32;5.60;;;5.40;;
2201;SDS011;1107;48.654;9.250;2022-08-16T08:14:00;6.83;;;6.33;;
2201;SDS011;1107;48.654;9.250;2022-08-16T08:16:30;6.50;;;6.10;;
2201;SDS011;1107;48.654;9.250;2022-08-16T08:18:58;6.70;;;6.30;;
2201;SDS011;1107;48.654;9.250;2022-08-16T08:21:25;6.70;;;6.40;;
2201;SDS011;1107;48.654;9.250;2022-08-16T08:23:53;7.20;;;5.80;;
2201;SDS011;1107;48.654;9.250;2022-08-16T08:26:21;6.17;;;5.80;;
2201;SDS011;1107;48.654;9.250;2022-08-16T08:28:49;6.50;;;6.10;;
2201;SDS011;1107;48.654;9.250;2022-08-16T08:31:17;5.70;;;5.50;;
2201;SDS011;1107;48.654;9.250;2022-08-16T08:33:45;7.20;;;6.60;;
2201;SDS011;1107;48.654;9.250;2022-08-16T08:36:13;6.80;;;6.40;;
2201;SDS011;1107;48.654;9.250;2022-08-16T08:38:47;5.47;;;5.27;;
2201;SDS011;1107;48.654;9.250;2022-08-16T08:41:15;7.13;;;6.53;;
2201;SDS011;1107;48.654;9.250;2022-08-16T08:43:42;6.70;;;6.30;;
2201;SDS011;1107;48.654;9.250;2022-08-16T08:46:09;6.83;;;6.43;;
2201;SDS011;1107;48.654;9.250;2022-08-16T08:48:36;6.40;;;6.07;;
2201;SDS011;1107;48.654;9.250;2022-08-16T08:51:05;6.63;;;6.13;;
2201;SDS011;1107;48.654;9.250;2022-08-16T08:53:33;7.00;;;6.60;;
2201;SDS011;1107;48.654;9.250;2022-08-16T08:56:01;6.37;;;6.07;;
2201;SDS011;1107;48.654;9.250;2022-08-16T08:58:31;6.33;;;5.93;;
2201;SDS011;1107;48.654;9.250;2022-08-16T09:00:58;6.67;;;6.10;;
2201;SDS011;1107;48.654;9.250;2022-08-16T09:03:27;6.30;;;6.03;;
2201;SDS011;1107;48.654;9.250;2022-08-16T09:05:54;6.83;;;6.53;;
2201;SDS011;1107;48.654;9.250;2022-08-16T09:08:22;7.93;;;7.10;;
2201;SDS011;1107;48.654;9.250;2022-08-16T09:10:51;6.60;;;6.20;;
2201;SDS011;1107;48.654;9.250;2022-08-16T09:13:19;6.30;;;5.80;;
2201;SDS011;1107;48.654;9.250;2022-08-16T09:15:47;6.13;;;5.83;;
2201;SDS011;1107;48.654;9.250;2022-08-16T09:18:14;5.93;;;5.43;;
2201;SDS011;1107;48.654;9.250;2022-08-16T09:20:41;6.80;;;6.30;;
2201;SDS011;1107;48.654;9.250;2022-08-16T09:23:09;6.23;;;5.90;;
2201;SDS011;1107;48.654;9.250;2022-08-16T09:25:39;6.13;;;5.83;;
2201;SDS011;1107;48.654;9.250;2022-08-16T09:28:07;6.03;;;5.73;;
2201;SDS011;1107;48.654;9.250;2022-08-16T09:30:34;5.30;;;5.00;;
2201;SDS011;1107;48.654;9.250;2022-08-16T09:33:02;6.20;;;5.70;;
2201;SDS011;1107;48.654;9.250;2022-08-16T09:35:31;5.60;;;5.20;;
2201;SDS011;1107;48.654;9.250;2022-08-16T09:37:58;8.10;;;5.80;;
2201;SDS011;1107;48.654;9.250;2022-08-16T09:40:25;5.80;;;5.40;;
2201;SDS011;1107;48.654;9.250;2022-08-16T09:42:54;6.67;;;6.20;;
2201;SDS011;1107;48.654;9.250;2022-08-16T09:45:22;6.00;;;5.70;;
2201;SDS011;1107;48.654;9.250;2022-08-16T09:47:50;7.23;;;6.30;;
2201;SDS011;1107;48.654;9.250;2022-08-16T09:50:37;7.57;;;7.20;;
2201;SDS011;1107;48.654;9.250;2022-08-16T09:53:06;7.17;;;6.80;;
2201;SDS011;1107;48.654;9.250;2022-08-16T09:55:35;6.70;;;6.40;;
2201;SDS011;1107;48.654;9.250;2022-08-16T09:58:03;6.83;;;6.33;;
2201;SDS011;1107;48.654;9.250;2022-08-16T10:00:30;6.70;;;6.03;;
2201;SDS011;1107;48.654;9.250;2022-08-16T10:02:58;6.50;;;6.10;;
2201;SDS011;1107;48.654;9.250;2022-08-16T10:05:25;7.90;;;5.83;;
2201;SDS011;1107;48.654;9.250;2022-08-16T10:07:52;6.50;;;6.10;;
2201;SDS011;1107;48.654;9.250;2022-08-16T10:10:20;6.57;;;6.27;;
2201;SDS011;1107;48.654;9.250;2022-08-16T10:12:48;6.43;;;6.13;;
2201;SDS011;1107;48.654;9.250;2022-08-16T10:15:35;5.63;;;5.40;;
2201;SDS011;1107;48.654;9.250;2022-08-16T10:18:03;5.53;;;5.23;;
2201;SDS011;1107;48.654;9.250;2022-08-16T10:20:32;5.73;;;5.43;;
2201;SDS011;1107;48.654;9.250;2022-08-16T10:23:01;5.93;;;5.43;;
2201;SDS011;1107;48.654;9.250;2022-08-16T10:25:29;6.30;;;5.90;;
2201;SDS011;1107;48.654;9.250;2022-08-16T10:27:56;6.00;;;5.67;;
2201;SDS011;1107;48.654;9.250;2022-08-16T10:30:24;5.93;;;5.73;;
2201;SDS011;1107;48.654;9.250;2022-08-16T10:32:53;6.70;;;6.27;;
2201;SDS011;1107;48.654;9.250;2022-08-16T10:35:20;6.30;;;6.10;;
2201;SDS011;1107;48.654;9.250;2022-08-16T10:37:48;5.77;;;5.47;;
2201;SDS011;1107;48.654;9.250;2022-08-16T10:40:15;6.87;;;6.37;;
2201;SDS011;1107;48.654;9.250;2022-08-16T10:42:42;5.63;;;5.37;;
2201;SDS011;1107;48.654;9.250;2022-08-16T10:45:09;6.00;;;5.70;;
2201;SDS011;1107;48.654;9.250;2022-08-16T10:47:37;6.33;;;6.10;;
2201;SDS011;1107;48.654;9.250;2022-08-16T10:50:06;6.70;;;6.30;;
2201;SDS011;1107;48.654;9.250;2022-08-16T10:52:33;6.20;;;5.67;;
2201;SDS011;1107;48.654;9.250;2022-08-16T10:55:01;6.00;;;5.70;;
2201;SDS011;1107;48.654;9.250;2022-08-16T10:57:29;5.30;;;4.90;;
2201;SDS011;1107;48.654;9.250;2022-08-16T10:59:56;6.00;;;5.60;;
2201;SDS011;1107;48.654;9.250;2022-08-16T11:02:23;6.03;;;5.77;;
2201;SDS011;1107;48.654;9.250;2022-08-16T11:04:51;15.90;;;5.30;;
2201;SDS011;1107;48.654;9.250;2022-08-16T11:07:20;5.60;;;5.20;;
2201;SDS011;1107;48.654;9.250;2022-08-16T11:09:47;5.30;;;5.00;;
2201;SDS011;1107;48.654;9.250;2022-08-16T11:12:14;5.27;;;5.07;;
2201;SDS011;1107;48.654;9.250;2022-08-16T11:14:41;5.33;;;4.80;;
2201;SDS011;1107;48.654;9.250;2022-08-16T11:17:08;6.07;;;5.43;;
2201;SDS011;1107;48.654;9.250;2022-08-16T11:19:37;5.27;;;4.83;;
2201;SDS011;1107;48.654;9.250;2022-08-16T11:22:06;6.47;;;6.10;;
2201;SDS011;1107;48.654;9.250;2022-08-16T11:24:35;5.50;;;4.97;;
2201;SDS011;1107;48.654;9.250;2022-08-16T11:27:04;5.17;;;4.67;;
2201;SDS011;1107;48.654;9.250;2022-08-16T11:29:32;5.27;;;4.87;;
2201;SDS011;1107;48.654;9.250;2022-08-16T11:31:59;5.47;;;5.27;;
2201;SDS011;1107;48.654;9.250;2022-08-16T11:34:29;5.20;;;5.00;;
2201;SDS011;1107;48.654;9.250;2022-08-16T11:36:57;4.83;;;4.53;;
2201;SDS011;1107;48.654;9.250;2022-08-16T11:39:25;5.10;;;4.90;;
2201;SDS011;1107;48.654;9.250;2022-08-16T11:41:54;5.70;;;5.40;;
2201;SDS011;1107;48.654;9.250;2022-08-16T11:44:22;8.23;;;5.07;;
2201;SDS011;1107;48.654;9.250;2022-08-16T11:46:50;5.20;;;5.00;;
2201;SDS011;1107;48.654;9.250;2022-08-16T11:49:17;6.10;;;5.17;;
2201;SDS011;1107;48.654;9.250;2022-08-16T11:51:44;6.97;;;5.23;;
2201;SDS011;1107;48.654;9.250;2022-08-16T11:54:14;5.93;;;5.23;;
2201;SDS011;1107;48.654;9.250;2022-08-16T11:56:42;5.50;;;5.30;;
2201;SDS011;1107;48.654;9.250;2022-08-16T11:59:11;5.67;;;5.37;;
2201;SDS011;1107;48.654;9.250;2022-08-16T12:01:38;17.13;;;5.50;;
2201;SDS011;1107;48.654;9.250;2022-08-16T12:04:06;5.90;;;5.60;;
2201;SDS011;1107;48.654;9.250;2022-08-16T12:06:35;6.33;;;5.80;;
2201;SDS011;1107;48.654;9.250;2022-08-16T12:09:03;7.77;;;5.23;;
2201;SDS011;1107;48.654;9.250;2022-08-16T12:11:31;5.17;;;4.87;;
2201;SDS011;1107;48.654;9.250;2022-08-16T12:13:58;4.80;;;4.60;;
2201;SDS011;1107;48.654;9.250;2022-08-16T12:16:27;5.00;;;4.60;;
2201;SDS011;1107;48.654;9.250;2022-08-16T12:18:56;5.07;;;4.80;;
2201;SDS011;1107;48.654;9.250;2022-08-16T12:21:23;4.80;;;4.60;;
2201;SDS011;1107;48.654;9.250;2022-08-16T12:23:51;5.20;;;4.80;;
2201;SDS011;1107;48.654;9.250;2022-08-16T12:26:19;7.90;;;4.80;;
2201;SDS011;1107;48.654;9.250;2022-08-16T12:28:47;5.40;;;5.20;;
2201;SDS011;1107;48.654;9.250;2022-08-16T12:31:17;5.00;;;4.67;;
2201;SDS011;1107;48.654;9.250;2022-08-16T12:33:46;10.40;;;4.90;;
2201;SDS011;1107;48.654;9.250;2022-08-16T12:36:14;7.57;;;5.40;;
2201;SDS011;1107;48.654;9.250;2022-08-16T12:38:42;4.90;;;4.70;;
2201;SDS011;1107;48.654;9.250;2022-08-16T12:41:11;5.47;;;5.20;;
2201;SDS011;1107;48.654;9.250;2022-08-16T12:43:43;5.67;;;4.60;;
2201;SDS011;1107;48.654;9.250;2022-08-16T12:46:11;5.63;;;5.23;;
2201;SDS011;1107;48.654;9.250;2022-08-16T12:48:38;5.10;;;4.90;;
2201;SDS011;1107;48.654;9.250;2022-08-16T12:51:25;11.23;;;4.90;;
2201;SDS011;1107;48.654;9.250;2022-08-16T12:53:56;5.13;;;4.93;;
2201;SDS011;1107;48.654;9.250;2022-08-16T12:56:25;5.10;;;4.80;;
2201;SDS011;1107;48.654;9.250;2022-08-16T12:59:06;4.80;;;4.40;;
2201;SDS011;1107;48.654;9.250;2022-08-16T13:01:44;5.13;;;4.73;;
2201;SDS011;1107;48.654;9.250;2022-08-16T13:04:18;5.50;;;5.20;;
2201;SDS011;1107;48.654;9.250;2022-08-16T13:39:35;5.37;;;5.07;;
2201;SDS011;1107;48.654;9.250;2022-08-16T13:42:02;5.50;;;5.30;;
2201;SDS011;1107;48.654;9.250;2022-08-16T13:44:34;4.90;;;4.47;;
2201;SDS011;1107;48.654;9.250;2022-08-16T13:47:01;5.20;;;5.00;;
2201;SDS011;1107;48.654;9.250;2022-08-16T13:49:28;5.67;;;5.40;;
2201;SDS011;1107;48.654;9.250;2022-08-16T13:51:55;5.20;;;5.00;;
2201;SDS011;1107;48.654;9.250;2022-08-16T13:54:23;5.00;;;4.70;;
2201;SDS011;1107;48.654;9.250;2022-08-16T13:56:51;5.43;;;5.23;;
2201;SDS011;1107;48.654;9.250;2022-08-16T13:59:18;4.73;;;4.53;;
2201;SDS011;1107;48.654;9.250;2022-08-16T14:01:46;5.00;;;4.80;;
2201;SDS011;1107;48.654;9.250;2022-08-16T14:04:14;5.40;;;5.00;;
2201;SDS011;1107;48.654;9.250;2022-08-16T14:06:41;5.57;;;5.37;;
2201;SDS011;1107;48.654;9.250;2022-08-16T14:09:09;5.53;;;5.20;;
2201;SDS011;1107;48.654;9.250;2022-08-16T14:11:36;5.20;;;4.90;;
2201;SDS011;1107;48.654;9.250;2022-08-16T14:14:05;5.10;;;4.70;;
2201;SDS011;1107;48.654;9.250;2022-08-16T14:16:32;5.73;;;5.00;;
2201;SDS011;1107;48.654;9.250;2022-08-16T14:18:59;5.37;;;5.07;;
2201;SDS011;1107;48.654;9.250;2022-08-16T14:21:27;6.60;;;5.20;;
2201;SDS011;1107;48.654;9.250;2022-08-16T14:23:54;5.20;;;5.00;;
2201;SDS011;1107;48.654;9.250;2022-08-16T14:26:21;5.50;;;5.20;;
2201;SDS011;1107;48.654;9.250;2022-08-16T14:28:48;4.90;;;4.60;;
2201;SDS011;1107;48.654;9.250;2022-08-16T14:31:17;5.20;;;4.90;;
2201;SDS011;1107;48.654;9.250;2022-08-16T14:33:45;5.57;;;5.37;;
2201;SDS011;1107;48.654;9.250;2022-08-16T14:36:12;5.90;;;5.60;;
2201;SDS011;1107;48.654;9.250;2022-08-16T14:38:39;5.53;;;5.23;;
2201;SDS011;1107;48.654;9.250;2022-08-16T14:41:06;5.57;;;5.17;;
2201;SDS011;1107;48.654;9.250;2022-08-16T14:43:33;5.43;;;5.20;;
2201;SDS011;1107;48.654;9.250;2022-08-16T14:46:00;5.80;;;5.40;;
2201;SDS011;1107;48.654;9.250;2022-08-16T14:48:30;4.97;;;4.77;;
2201;SDS011;1107;48.654;9.250;2022-08-16T14:50:57;5.07;;;4.67;;
2201;SDS011;1107;48.654;9.250;2022-08-16T14:53:24;6.07;;;5.60;;
2201;SDS011;1107;48.654;9.250;2022-08-16T14:55:52;5.27;;;5.00;;
2201;SDS011;1107;48.654;9.250;2022-08-16T14:58:19;5.30;;;5.00;;
2201;SDS011;1107;48.654;9.250;2022-08-16T15:00:48;4.90;;;4.70;;
2201;SDS011;1107;48.654;9.250;2022-08-16T15:03:15;5.53;;;5.03;;
2201;SDS011;1107;48.654;9.250;2022-08-16T15:05:44;5.70;;;5.30;;
2201;SDS011;1107;48.654;9.250;2022-08-16T15:08:11;5.77;;;5.47;;
2201;SDS011;1107;48.654;9.250;2022-08-16T15:10:38;5.20;;;5.00;;
2201;SDS011;1107;48.654;9.250;2022-08-16T15:13:06;5.07;;;4.87;;
2201;SDS011;1107;48.654;9.250;2022-08-16T15:15:33;5.33;;;5.13;;
2201;SDS011;1107;48.654;9.250;2022-08-16T15:18:01;6.13;;;5.50;;
2201;SDS011;1107;48.654;9.250;2022-08-16T15:20:31;6.20;;;5.90;;
2201;SDS011;1107;48.654;9.250;2022-08-16T15:23:02;5.73;;;5.53;;
2201;SDS011;1107;48.654;9.250;2022-08-16T15:25:33;9.73;;;5.60;;
2201;SDS011;1107;48.654;9.250;2022-08-16T15:28:03;6.10;;;5.47;;
2201;SDS011;1107;48.654;9.250;2022-08-16T15:30:32;5.17;;;4.97;;
2201;SDS011;1107;48.654;9.250;2022-08-16T15:33:03;6.93;;;4.43;;
2201;SDS011;1107;48.654;9.250;2022-08-16T15:35:31;5.47;;;5.17;;
2201;SDS011;1107;48.654;9.250;2022-08-16T15:38:02;5.90;;;5.30;;
2201;SDS011;1107;48.654;9.250;2022-08-16T15:40:29;5.40;;;5.10;;
2201;SDS011;1107;48.654;9.250;2022-08-16T15:42:56;5.30;;;5.00;;
2201;SDS011;1107;48.654;9.250;2022-08-16T15:45:24;5.53;;;5.23;;
2201;SDS011;1107;48.654;9.250;2022-08-16T15:48:09;5.80;;;5.40;;
2201;SDS011;1107;48.654;9.250;2022-08-16T15:50:38;5.60;;;5.40;;
2201;SDS011;1107;48.654;9.250;2022-08-16T15:53:10;5.20;;;5.00;;
2201;SDS011;1107;48.654;9.250;2022-08-16T15:55:40;6.17;;;5.87;;
2201;SDS011;1107;48.654;9.250;2022-08-16T15:58:07;5.33;;;5.13;;
2201;SDS011;1107;48.654;9.250;2022-08-16T16:00:34;6.63;;;5.40;;
2201;SDS011;1107;48.654;9.250;2022-08-16T16:03:02;6.47;;;5.37;;